Time;durP1;ratioP1;P1;durP2;ratioP2;P2;SDS_P1;SDS_P2;PMS_P1;PMS_P2;Temp;Humidity;BMP_temperature;BMP_pressure;BME280_temperature;BME280_humidity;BME280_pressure;Samples;Min_cycle;Max_cycle;Signal;HPM_P1;HPM_P2
2021/01/19 00:00:12;;;;;;;6.83;4.10;;;;;;;2.15;64.25;97264.69;5072777;28;20590;-69
2021/01/19 00:02:38;;;;;;;6.83;4.10;;;;;;;2.25;64.29;97258.00;5071322;28;20579;-68
2021/01/19 00:05:05;;;;;;;6.67;3.60;;;;;;;2.39;63.93;97256.28;5072833;28;20428;-69
2021/01/19 00:07:30;;;;;;;7.23;4.00;;;;;;;2.63;63.32;97255.59;5064668;28;20191;-68
2021/01/19 00:09:56;;;;;;;5.73;4.23;;;;;;;2.22;64.53;97249.59;5068290;28;20420;-67
2021/01/19 00:12:22;;;;;;;11.33;3.67;;;;;;;2.41;63.52;97249.22;5072526;28;20206;-68
2021/01/19 00:14:48;;;;;;;5.30;3.80;;;;;;;2.32;63.89;97245.50;5072179;28;20182;-69
2021/01/19 00:17:14;;;;;;;8.63;3.97;;;;;;;2.08;64.85;97253.06;5064143;28;20427;-68
2021/01/19 00:19:40;;;;;;;6.73;4.30;;;;;;;2.22;64.13;97242.69;5071740;28;20433;-69
2021/01/19 00:22:05;;;;;;;8.00;4.73;;;;;;;2.09;64.63;97245.22;5072651;28;20206;-69
2021/01/19 00:24:31;;;;;;;4.70;4.10;;;;;;;2.37;63.76;97240.84;5072495;28;20703;-68
2021/01/19 00:26:57;;;;;;;6.17;4.37;;;;;;;2.29;63.65;97240.53;5071530;28;20599;-67
2021/01/19 00:29:23;;;;;;;8.53;4.93;;;;;;;2.67;62.92;97244.09;5070676;28;20265;-68
2021/01/19 00:31:48;;;;;;;7.83;4.80;;;;;;;2.36;63.30;97251.31;5063965;28;20202;-67
2021/01/19 00:34:14;;;;;;;4.93;3.50;;;;;;;2.33;63.65;97252.34;5071310;28;20182;-68
2021/01/19 00:36:40;;;;;;;3.93;3.40;;;;;;;2.51;63.14;97252.91;5071548;28;20201;-69
2021/01/19 00:39:05;;;;;;;6.40;4.03;;;;;;;2.46;63.23;97250.59;5059374;28;20303;-69
2021/01/19 00:41:31;;;;;;;7.17;4.30;;;;;;;2.39;62.94;97245.94;5072448;28;20547;-68
2021/01/19 00:43:57;;;;;;;8.83;3.77;;;;;;;2.76;62.22;97244.31;5071597;28;20275;-69
2021/01/19 00:46:22;;;;;;;6.73;3.70;;;;;;;2.43;63.56;97243.06;5063692;28;20193;-68
2021/01/19 00:48:48;;;;;;;7.27;3.77;;;;;;;2.46;62.77;97239.44;5070041;28;20182;-69
2021/01/19 00:51:14;;;;;;;5.13;3.43;;;;;;;2.68;62.41;97231.09;5068241;28;20183;-69
2021/01/19 00:53:40;;;;;;;8.53;3.80;;;;;;;2.61;62.35;97235.00;5068462;28;20208;-67
2021/01/19 00:56:06;;;;;;;5.93;3.60;;;;;;;2.68;62.40;97227.66;5064256;28;20174;-69
2021/01/19 00:58:31;;;;;;;5.70;3.33;;;;;;;2.70;62.16;97223.19;5071612;28;20265;-67
2021/01/19 01:00:57;;;;;;;5.87;4.10;;;;;;;2.73;62.08;97225.59;5071562;28;20968;-67
2021/01/19 01:03:23;;;;;;;4.97;3.60;;;;;;;2.81;61.83;97225.91;5072303;28;20260;-68
2021/01/19 01:05:48;;;;;;;5.40;3.60;;;;;;;2.69;61.84;97232.75;5069678;28;20193;-68
2021/01/19 01:08:14;;;;;;;7.37;3.53;;;;;;;2.79;61.99;97225.16;5052597;28;20597;-68
2021/01/19 01:10:40;;;;;;;4.90;3.33;;;;;;;2.67;61.81;97219.06;5071663;28;20186;-68
2021/01/19 01:13:05;;;;;;;8.00;4.37;;;;;;;2.68;62.02;97212.13;5071633;28;20194;-68
2021/01/19 01:15:33;;;;;;;5.10;3.63;;;;;;;2.68;62.08;97215.56;5071807;28;20194;-69
2021/01/19 01:17:59;;;;;;;6.50;4.40;;;;;;;2.61;62.19;97220.31;5058402;28;20199;-70
2021/01/19 01:20:25;;;;;;;6.67;3.60;;;;;;;2.49;62.70;97210.78;5072509;28;20901;-69
2021/01/19 01:22:52;;;;;;;4.80;3.70;;;;;;;1.93;64.69;97213.53;5072413;28;20218;-68
2021/01/19 01:25:18;;;;;;;4.80;3.87;;;;;;;2.31;63.57;97210.22;5075291;28;20202;-68
2021/01/19 01:27:46;;;;;;;9.97;4.00;;;;;;;2.42;63.52;97217.25;5073032;28;21004;-68
2021/01/19 01:30:13;;;;;;;5.60;3.30;;;;;;;2.57;62.64;97220.63;5077393;28;20443;-67
2021/01/19 01:32:43;;;;;;;4.63;3.17;;;;;;;2.35;62.87;97209.06;5081311;28;20484;-70
2021/01/19 01:35:10;;;;;;;6.60;3.40;;;;;;;2.14;63.80;97213.91;5073531;28;20515;-70
2021/01/19 01:37:43;;;;;;;5.83;3.43;;;;;;;2.04;63.90;97205.91;5063935;28;20516;-69
2021/01/19 01:40:09;;;;;;;5.30;2.80;;;;;;;2.05;63.64;97205.00;5073471;28;20579;-67
2021/01/19 01:42:35;;;;;;;11.33;3.90;;;;;;;1.90;65.00;97204.19;5056831;28;20507;-67
2021/01/19 01:45:00;;;;;;;6.03;3.63;;;;;;;1.45;65.87;97206.19;5074205;28;20420;-67
2021/01/19 01:47:27;;;;;;;6.30;3.70;;;;;;;1.28;66.23;97196.91;5075294;28;20182;-68
2021/01/19 01:49:54;;;;;;;6.23;3.60;;;;;;;1.54;65.97;97195.25;5073276;28;20194;-69
2021/01/19 01:52:22;;;;;;;3.97;3.30;;;;;;;1.59;65.94;97193.22;5074494;28;20948;-68
2021/01/19 01:54:49;;;;;;;7.50;3.60;;;;;;;1.61;65.31;97183.63;5073694;28;20420;-68
2021/01/19 01:57:16;;;;;;;4.37;3.10;;;;;;;1.51;65.91;97180.78;5074724;28;20447;-68
2021/01/19 01:59:42;;;;;;;4.40;3.60;;;;;;;1.68;65.64;97173.75;5073031;28;20420;-68
2021/01/19 02:02:11;;;;;;;4.73;3.20;;;;;;;1.36;66.61;97168.81;5066193;28;20578;-69
2021/01/19 02:04:37;;;;;;;3.87;3.17;;;;;;;1.31;67.00;97156.22;5073462;28;20327;-68
2021/01/19 02:07:18;;;;;;;4.50;3.20;;;;;;;1.51;66.06;97154.97;5071815;28;20435;-70
2021/01/19 02:09:50;;;;;;;5.70;3.20;;;;;;;1.61;65.53;97146.63;5065838;28;20799;-66
2021/01/19 02:12:20;;;;;;;4.87;3.50;;;;;;;1.41;66.79;97143.56;5072240;28;20449;-68
2021/01/19 02:14:54;;;;;;;3.63;2.63;;;;;;;1.63;65.90;97160.28;5073022;28;20424;-68
2021/01/19 02:17:38;;;;;;;4.00;3.03;;;;;;;1.41;66.02;97151.31;5072892;28;20430;-68
2021/01/19 02:20:18;;;;;;;5.83;3.10;;;;;;;1.73;64.23;97140.66;5064801;28;20550;-68
2021/01/19 02:23:00;;;;;;;4.20;3.10;;;;;;;1.78;64.72;97135.19;5073493;28;20467;-70
2021/01/19 02:26:00;;;;;;;4.10;2.67;;;;;;;1.81;64.14;97122.94;5074003;28;20939;-69
2021/01/19 02:28:42;;;;;;;3.73;2.90;;;;;;;1.73;64.22;97127.75;5073160;28;20505;-69
2021/01/19 02:31:45;;;;;;;3.87;3.00;;;;;;;1.70;64.82;97120.22;5071948;28;20436;-68
2021/01/19 02:34:13;;;;;;;5.30;2.40;;;;;;;2.05;63.27;97126.56;5065789;28;20911;-67
2021/01/19 02:36:50;;;;;;;4.73;2.57;;;;;;;2.18;62.82;97118.84;5073873;28;20427;-68
2021/01/19 02:39:55;;;;;;;4.50;3.20;;;;;;;2.07;62.49;97111.78;5058896;28;20420;-68
2021/01/19 02:42:24;;;;;;;6.90;3.37;;;;;;;2.46;61.67;97105.69;5041385;28;20460;-69
2021/01/19 02:44:51;;;;;;;3.90;3.00;;;;;;;2.01;62.96;97109.63;5054184;28;20456;-69
2021/01/19 02:47:18;;;;;;;3.53;2.30;;;;;;;2.70;61.39;97104.16;5053030;28;20451;-68
2021/01/19 02:49:44;;;;;;;4.23;2.50;;;;;;;2.66;61.07;97103.53;5062241;28;20429;-69
2021/01/19 02:52:12;;;;;;;4.13;2.60;;;;;;;2.44;61.67;97109.34;5069960;28;20444;-67
2021/01/19 02:54:38;;;;;;;4.50;2.80;;;;;;;2.43;61.78;97107.69;5070476;28;20448;-69
2021/01/19 02:57:04;;;;;;;12.80;3.83;;;;;;;2.24;62.17;97114.09;5070228;28;20490;-69
2021/01/19 02:59:48;;;;;;;4.50;2.50;;;;;;;1.95;62.92;97113.44;5070306;28;20433;-67
2021/01/19 03:02:20;;;;;;;2.80;2.60;;;;;;;2.19;62.33;97107.59;5070704;28;20217;-70
2021/01/19 03:04:47;;;;;;;6.60;2.63;;;;;;;2.08;62.51;97111.69;5069621;28;20456;-69
2021/01/19 03:07:14;;;;;;;4.87;2.87;;;;;;;2.51;61.74;97100.25;5067454;28;20520;-68
2021/01/19 03:09:40;;;;;;;5.60;2.73;;;;;;;2.65;60.66;97103.66;5045988;28;20545;-69
2021/01/19 03:12:07;;;;;;;3.50;2.30;;;;;;;2.24;61.94;97090.81;5069237;28;20980;-68
2021/01/19 03:14:35;;;;;;;3.30;2.57;;;;;;;2.66;60.70;97094.94;5037154;28;20440;-68
2021/01/19 03:17:08;;;;;;;5.60;2.30;;;;;;;2.91;60.06;97087.13;5070435;28;20458;-69
2021/01/19 03:19:39;;;;;;;5.37;3.20;;;;;;;3.00;59.71;97083.06;5064850;28;20422;-70
2021/01/19 03:22:05;;;;;;;3.97;2.60;;;;;;;3.02;59.44;97094.16;5064875;28;21021;-69
2021/01/19 03:24:31;;;;;;;11.67;3.53;;;;;;;3.14;59.32;97086.44;5071476;28;20544;-68
2021/01/19 03:26:56;;;;;;;6.17;2.80;;;;;;;3.10;59.57;97096.19;5072507;28;20196;-71
2021/01/19 03:29:22;;;;;;;8.43;3.23;;;;;;;3.21;59.44;97092.88;5071826;28;20186;-69
2021/01/19 03:31:48;;;;;;;5.37;3.13;;;;;;;2.95;59.53;97089.50;5072219;28;20186;-69
2021/01/19 03:34:14;;;;;;;2.53;2.20;;;;;;;3.03;59.24;97085.44;5072511;28;20186;-69
2021/01/19 03:36:39;;;;;;;10.30;3.23;;;;;;;2.92;59.87;97083.59;5072392;28;20493;-68
2021/01/19 03:39:05;;;;;;;6.93;3.10;;;;;;;2.99;59.60;97088.38;5060589;28;20680;-69
2021/01/19 03:41:31;;;;;;;5.90;3.43;;;;;;;3.14;59.35;97083.84;5071164;28;20178;-68
2021/01/19 03:43:57;;;;;;;4.00;3.03;;;;;;;2.78;59.56;97081.13;5071839;28;20469;-70
2021/01/19 03:46:24;;;;;;;3.50;2.67;;;;;;;2.88;60.05;97084.75;5058491;28;20388;-70
2021/01/19 03:48:50;;;;;;;5.10;3.20;;;;;;;3.03;59.79;97085.44;5068673;28;20424;-69
2021/01/19 03:51:15;;;;;;;3.00;2.70;;;;;;;3.27;58.69;97081.22;5071955;28;20424;-69
2021/01/19 03:53:41;;;;;;;3.87;2.87;;;;;;;3.28;58.32;97082.84;5063895;28;20669;-69
2021/01/19 03:56:07;;;;;;;4.90;3.13;;;;;;;3.09;59.06;97073.00;5071855;28;20180;-69
2021/01/19 03:58:33;;;;;;;4.93;3.30;;;;;;;3.08;59.25;97072.16;5071268;28;20182;-68
2021/01/19 04:00:58;;;;;;;4.50;3.17;;;;;;;3.27;58.86;97070.88;5071648;28;20611;-70
2021/01/19 04:03:24;;;;;;;5.97;3.30;;;;;;;3.13;58.93;97064.91;5071379;28;20240;-69
2021/01/19 04:05:50;;;;;;;4.10;2.93;;;;;;;2.88;59.55;97063.22;5072004;28;20711;-69
2021/01/19 04:08:15;;;;;;;6.57;3.67;;;;;;;2.89;59.45;97052.78;5059547;28;20178;-68
2021/01/19 04:10:41;;;;;;;9.07;3.30;;;;;;;2.70;59.72;97060.16;5063152;28;20606;-69
2021/01/19 04:13:07;;;;;;;4.20;3.63;;;;;;;2.41;60.63;97048.28;5071739;28;20661;-70
2021/01/19 04:15:32;;;;;;;4.10;3.17;;;;;;;2.90;59.83;97044.03;5072257;28;20607;-68
2021/01/19 04:17:58;;;;;;;9.77;4.17;;;;;;;3.08;59.31;97043.69;5062949;28;20183;-69
2021/01/19 04:20:24;;;;;;;4.70;3.87;;;;;;;2.87;59.58;97036.50;5071307;28;20174;-70
2021/01/19 04:22:50;;;;;;;4.30;2.97;;;;;;;3.05;59.42;97030.94;5070780;28;20218;-68
2021/01/19 04:25:16;;;;;;;5.30;2.73;;;;;;;2.88;59.51;97034.72;5050099;28;20810;-69
2021/01/19 04:27:42;;;;;;;6.43;2.93;;;;;;;2.84;59.82;97033.28;5060238;28;20516;-69
2021/01/19 04:30:08;;;;;;;4.00;3.13;;;;;;;2.88;59.49;97038.16;5071773;28;20178;-69
2021/01/19 04:32:37;;;;;;;5.10;2.67;;;;;;;2.79;59.78;97031.03;5069004;28;20246;-71
2021/01/19 04:35:04;;;;;;;5.57;2.90;;;;;;;2.78;59.57;97019.00;5048765;28;20805;-70
2021/01/19 04:37:30;;;;;;;3.10;2.47;;;;;;;2.80;59.00;97017.16;5058190;28;20871;-71
2021/01/19 04:39:56;;;;;;;6.23;3.07;;;;;;;2.70;59.67;97017.00;5061040;28;20511;-69
2021/01/19 04:42:22;;;;;;;5.40;2.80;;;;;;;2.75;59.76;97001.94;5063033;28;20811;-69
2021/01/19 04:44:48;;;;;;;3.10;2.70;;;;;;;2.52;59.79;97003.56;5056043;28;20214;-67
2021/01/19 04:47:15;;;;;;;4.20;2.90;;;;;;;2.59;59.98;96997.03;5059926;28;20888;-69
2021/01/19 04:49:42;;;;;;;4.17;3.20;;;;;;;2.74;59.45;97002.06;5056771;28;20429;-68
2021/01/19 04:52:14;;;;;;;6.73;3.60;;;;;;;2.72;59.69;96998.75;5053198;28;20438;-69
2021/01/19 04:54:59;;;;;;;9.83;4.27;;;;;;;2.79;59.61;97007.72;5053017;28;20487;-69
2021/01/19 04:57:29;;;;;;;4.70;3.20;;;;;;;2.71;59.98;96997.09;5046042;28;20472;-71
2021/01/19 05:00:00;;;;;;;5.50;3.53;;;;;;;2.54;60.28;96999.09;5034647;28;20547;-69
2021/01/19 05:02:49;;;;;;;5.67;3.67;;;;;;;2.40;60.91;96997.50;5057799;28;20452;-69
2021/01/19 05:05:36;;;;;;;2.90;2.63;;;;;;;2.27;61.46;96989.72;5050155;28;20437;-70
2021/01/19 05:08:02;;;;;;;7.97;3.20;;;;;;;2.55;60.43;96990.41;5052725;28;20497;-68
2021/01/19 05:11:08;;;;;;;4.63;3.30;;;;;;;2.34;60.76;96981.56;5061522;28;20475;-68
2021/01/19 05:13:53;;;;;;;6.87;3.43;;;;;;;2.49;60.19;96977.06;5046826;28;20211;-69
2021/01/19 05:16:31;;;;;;;3.57;3.23;;;;;;;2.50;60.42;96974.41;5048840;28;20567;-69
2021/01/19 05:18:58;;;;;;;4.33;3.50;;;;;;;2.46;60.25;96968.59;5054143;28;20460;-70
2021/01/19 05:21:24;;;;;;;13.30;4.63;;;;;;;2.40;60.71;96970.78;5055800;28;20515;-69
2021/01/19 05:23:50;;;;;;;6.97;4.13;;;;;;;2.40;60.56;96965.59;5056497;28;20555;-68
2021/01/19 05:26:17;;;;;;;5.93;3.83;;;;;;;2.17;61.14;96959.47;5023865;28;20187;-69
2021/01/19 05:29:05;;;;;;;5.97;3.30;;;;;;;2.50;60.66;96951.13;5037054;28;20925;-68
2021/01/19 05:31:32;;;;;;;6.03;3.23;;;;;;;2.44;60.30;96936.00;5055543;28;20429;-68
2021/01/19 05:34:11;;;;;;;4.37;3.00;;;;;;;2.24;61.15;96932.22;5041693;28;20441;-69
2021/01/19 05:36:44;;;;;;;6.70;3.80;;;;;;;2.09;61.48;96922.00;5054431;28;20417;-69
2021/01/19 05:39:19;;;;;;;4.20;3.30;;;;;;;2.10;61.40;96912.50;5054546;28;20426;-67
2021/01/19 05:41:50;;;;;;;4.07;3.27;;;;;;;2.01;61.59;96903.63;5063185;28;20424;-68
2021/01/19 05:44:21;;;;;;;5.70;3.40;;;;;;;2.01;62.07;96903.63;5062106;28;21133;-69
2021/01/19 05:46:55;;;;;;;5.77;3.70;;;;;;;1.86;61.94;96907.25;5071932;28;20421;-69
2021/01/19 05:49:42;;;;;;;4.60;3.40;;;;;;;1.85;61.87;96914.19;5068492;28;20954;-69
2021/01/19 05:52:08;;;;;;;6.40;3.30;;;;;;;1.88;62.17;96908.84;5053724;28;20446;-68
2021/01/19 05:54:38;;;;;;;4.27;3.60;;;;;;;2.13;61.20;96901.97;5054817;28;20451;-67
2021/01/19 05:57:05;;;;;;;5.90;3.30;;;;;;;1.89;61.78;96894.13;5061160;28;21905;-69
2021/01/19 05:59:36;;;;;;;8.30;3.37;;;;;;;2.03;61.09;96890.59;5055163;28;20426;-69
2021/01/19 06:02:04;;;;;;;3.70;3.07;;;;;;;2.16;60.45;96893.97;5062509;28;20429;-68
2021/01/19 06:04:49;;;;;;;4.30;3.33;;;;;;;2.12;60.99;96898.53;5056742;28;20465;-70
2021/01/19 06:07:19;;;;;;;4.03;3.03;;;;;;;2.10;61.08;96894.41;5054472;28;20433;-70
2021/01/19 06:09:45;;;;;;;9.30;3.53;;;;;;;2.00;61.02;96896.81;5054720;28;20437;-69
2021/01/19 06:12:12;;;;;;;4.63;3.20;;;;;;;2.35;60.10;96896.09;5053656;28;20454;-69
2021/01/19 06:14:39;;;;;;;5.63;3.60;;;;;;;2.35;59.66;96883.16;5061001;28;20433;-69
2021/01/19 06:17:08;;;;;;;10.27;3.87;;;;;;;2.21;59.96;96875.53;5057556;28;20930;-70
2021/01/19 06:19:34;;;;;;;6.57;3.40;;;;;;;2.28;60.06;96869.03;5059499;28;20440;-69
2021/01/19 06:22:08;;;;;;;4.43;3.47;;;;;;;2.14;60.10;96880.34;5054519;28;20525;-69
2021/01/19 06:24:36;;;;;;;10.30;3.50;;;;;;;1.98;60.91;96871.06;5016601;28;20466;-69
2021/01/19 06:27:02;;;;;;;6.57;3.67;;;;;;;2.03;60.46;96867.31;5026993;28;20482;-69
2021/01/19 06:29:29;;;;;;;5.40;3.70;;;;;;;2.04;60.72;96868.97;5062380;28;20436;-68
2021/01/19 06:31:56;;;;;;;6.47;3.60;;;;;;;2.01;60.45;96854.50;5027993;28;20788;-69
2021/01/19 06:34:38;;;;;;;3.73;3.30;;;;;;;2.05;60.29;96857.69;5048003;28;20436;-69
2021/01/19 06:37:08;;;;;;;7.47;4.37;;;;;;;1.88;60.86;96857.13;5054552;28;20428;-69
2021/01/19 06:39:39;;;;;;;4.83;3.23;;;;;;;1.79;61.25;96855.16;5054061;28;20417;-68
2021/01/19 06:42:12;;;;;;;9.03;3.20;;;;;;;1.48;61.94;96860.69;5062034;28;20920;-68
2021/01/19 06:44:43;;;;;;;5.57;3.20;;;;;;;1.75;60.94;96867.47;5069145;28;20468;-67
2021/01/19 06:47:10;;;;;;;4.37;3.50;;;;;;;1.99;60.02;96871.88;5075117;28;20424;-70
2021/01/19 06:49:38;;;;;;;5.23;3.80;;;;;;;2.02;59.99;96871.69;5074540;28;20428;-68
2021/01/19 06:52:07;;;;;;;5.60;3.57;;;;;;;2.12;59.93;96872.69;5046653;28;20460;-68
2021/01/19 06:54:53;;;;;;;4.90;3.90;;;;;;;2.13;59.26;96864.00;5073861;28;20502;-67
2021/01/19 06:57:53;;;;;;;4.27;3.73;;;;;;;2.08;59.39;96854.91;5062926;28;20941;-68
2021/01/19 07:00:20;;;;;;;7.80;3.70;;;;;;;1.87;59.87;96859.81;5060584;28;20409;-70
2021/01/19 07:02:48;;;;;;;4.50;3.70;;;;;;;2.04;59.81;96848.28;5072770;28;20448;-69
2021/01/19 07:05:23;;;;;;;5.60;3.93;;;;;;;1.90;60.19;96841.50;5070247;28;20423;-69
2021/01/19 07:08:04;;;;;;;6.20;3.40;;;;;;;1.95;59.86;96848.00;5071039;28;20432;-69
2021/01/19 07:10:37;;;;;;;5.50;3.00;;;;;;;1.75;60.27;96853.75;5073157;28;20642;-69
2021/01/19 07:13:04;;;;;;;5.10;3.07;;;;;;;1.79;60.50;96850.84;5063921;28;20508;-70
2021/01/19 07:16:03;;;;;;;3.90;2.97;;;;;;;1.92;60.20;96850.00;5075454;28;20425;-68
2021/01/19 07:18:43;;;;;;;7.77;3.73;;;;;;;1.96;59.71;96847.09;5063371;28;20429;-69
2021/01/19 07:21:13;;;;;;;6.10;4.30;;;;;;;1.82;60.04;96845.47;5057581;28;20503;-69
2021/01/19 07:23:44;;;;;;;6.73;3.83;;;;;;;2.00;59.60;96852.84;5065120;28;20567;-69
2021/01/19 07:26:21;;;;;;;7.10;3.57;;;;;;;2.04;59.76;96848.28;5052453;28;20437;-69
2021/01/19 07:28:49;;;;;;;6.27;3.93;;;;;;;2.01;59.63;96833.03;5061861;28;20421;-68
2021/01/19 07:31:16;;;;;;;9.13;4.07;;;;;;;2.04;59.22;96828.44;5073094;28;20456;-68
2021/01/19 07:33:53;;;;;;;9.30;4.10;;;;;;;2.10;59.11;96824.59;5074285;28;20453;-69
2021/01/19 07:36:21;;;;;;;6.33;4.30;;;;;;;2.01;59.32;96823.50;5061257;28;20786;-68
2021/01/19 07:38:48;;;;;;;5.90;4.00;;;;;;;1.97;59.43;96829.78;5075187;28;20441;-69
2021/01/19 07:41:26;;;;;;;7.23;4.10;;;;;;;1.89;59.57;96817.41;5078213;28;20515;-69
2021/01/19 07:43:52;;;;;;;7.37;4.17;;;;;;;2.01;59.36;96823.50;5069251;28;20475;-70
2021/01/19 07:46:22;;;;;;;8.27;4.50;;;;;;;2.06;59.19;96811.06;5073627;28;20424;-68
2021/01/19 07:48:59;;;;;;;6.70;3.60;;;;;;;1.75;59.90;96804.66;5072885;28;20456;-70
2021/01/19 07:51:25;;;;;;;12.43;4.83;;;;;;;1.96;59.15;96805.72;5066005;28;20463;-70
2021/01/19 07:53:54;;;;;;;6.50;4.40;;;;;;;2.15;58.97;96801.81;5073192;28;20476;-68
2021/01/19 07:56:28;;;;;;;9.57;5.07;;;;;;;2.16;59.25;96800.88;5065054;28;20192;-70
2021/01/19 07:58:54;;;;;;;6.47;4.57;;;;;;;2.23;58.65;96804.69;5071562;28;20462;-69
2021/01/19 08:01:28;;;;;;;7.80;4.80;;;;;;;2.37;58.41;96802.88;5071724;28;20774;-70
2021/01/19 08:04:14;;;;;;;7.70;4.63;;;;;;;2.45;58.52;96791.06;5071294;28;20533;-70
2021/01/19 08:06:42;;;;;;;7.67;4.70;;;;;;;2.50;58.59;96782.09;5063059;28;20497;-69
2021/01/19 08:09:14;;;;;;;8.37;4.80;;;;;;;2.50;58.03;96777.78;5071524;28;20520;-69
2021/01/19 08:11:42;;;;;;;6.20;4.30;;;;;;;2.73;57.63;96775.25;5072693;28;20795;-69
2021/01/19 08:14:09;;;;;;;6.63;4.33;;;;;;;2.83;57.44;96767.63;5066400;28;20447;-69
2021/01/19 08:16:38;;;;;;;11.10;5.00;;;;;;;2.98;56.88;96761.28;5072714;28;20866;-69
2021/01/19 08:19:05;;;;;;;8.23;5.17;;;;;;;3.05;56.85;96761.66;5056294;28;20800;-71
2021/01/19 08:21:37;;;;;;;7.20;5.03;;;;;;;3.07;56.56;96767.53;5072526;28;20942;-69
2021/01/19 08:24:09;;;;;;;6.17;4.30;;;;;;;3.18;55.96;96759.78;5071410;28;20479;-70
2021/01/19 08:26:36;;;;;;;9.53;5.07;;;;;;;3.25;56.61;96760.13;5063778;28;20425;-69
2021/01/19 08:29:03;;;;;;;8.50;4.43;;;;;;;3.10;56.22;96758.72;5071481;28;20795;-67
2021/01/19 08:31:30;;;;;;;6.57;4.47;;;;;;;3.17;56.28;96750.34;5064272;28;20452;-69
2021/01/19 08:34:01;;;;;;;7.73;4.63;;;;;;;3.52;55.43;96738.22;5071831;28;20509;-68
2021/01/19 08:36:27;;;;;;;8.30;5.67;;;;;;;3.32;55.65;96727.66;5071644;28;20914;-68
2021/01/19 08:38:57;;;;;;;7.33;4.83;;;;;;;3.27;56.18;96722.00;5063775;28;20927;-69
2021/01/19 08:41:23;;;;;;;8.23;5.43;;;;;;;3.53;55.56;96727.72;5058242;28;20619;-68
2021/01/19 08:44:02;;;;;;;9.67;4.97;;;;;;;3.35;55.59;96727.41;5061486;28;20468;-67
2021/01/19 08:46:32;;;;;;;9.67;4.80;;;;;;;3.09;55.73;96737.19;5058513;28;20431;-68
2021/01/19 08:49:03;;;;;;;12.53;4.50;;;;;;;3.56;55.70;96731.88;5064308;28;20448;-69
2021/01/19 08:51:29;;;;;;;9.00;5.07;;;;;;;3.59;54.77;96738.56;5077314;28;20477;-69
2021/01/19 08:53:55;;;;;;;8.37;4.67;;;;;;;3.71;54.62;96732.44;5077632;28;20440;-68
2021/01/19 08:56:25;;;;;;;6.80;4.83;;;;;;;3.82;54.87;96734.19;5076611;28;20649;-70
2021/01/19 08:58:51;;;;;;;6.83;4.70;;;;;;;3.73;54.67;96724.53;5075938;28;20512;-69
2021/01/19 09:01:17;;;;;;;6.83;4.10;;;;;;;3.38;55.23;96716.00;5075086;28;20451;-69
2021/01/19 09:03:57;;;;;;;11.13;5.33;;;;;;;3.28;56.12;96720.22;5068669;28;20472;-69
2021/01/19 09:06:23;;;;;;;6.57;4.50;;;;;;;3.58;55.40;96713.59;5037467;28;20429;-68
2021/01/19 09:08:56;;;;;;;6.07;4.40;;;;;;;3.60;55.24;96727.25;5046644;28;20456;-70
2021/01/19 09:11:30;;;;;;;7.97;4.80;;;;;;;3.67;54.92;96724.06;5064909;28;20428;-70
2021/01/19 09:14:07;;;;;;;10.93;4.53;;;;;;;3.31;56.22;96722.56;5067186;28;20804;-69
2021/01/19 09:16:33;;;;;;;6.37;4.40;;;;;;;3.45;56.07;96727.50;5061874;28;20417;-68
2021/01/19 09:19:00;;;;;;;9.20;4.87;;;;;;;3.26;56.64;96735.88;5074665;28;20934;-69
2021/01/19 09:21:27;;;;;;;7.97;4.40;;;;;;;3.33;56.41;96744.00;5073982;28;20428;-70
2021/01/19 09:23:53;;;;;;;8.30;4.93;;;;;;;3.50;56.16;96725.41;5067507;28;20465;-69
2021/01/19 09:26:20;;;;;;;7.27;4.80;;;;;;;3.49;56.14;96723.75;5061190;28;20417;-69
2021/01/19 09:28:46;;;;;;;7.43;4.80;;;;;;;3.69;55.30;96700.63;5072148;28;20763;-70
2021/01/19 09:31:23;;;;;;;8.10;4.90;;;;;;;3.55;56.62;96699.13;5054535;28;20848;-70
2021/01/19 09:33:51;;;;;;;9.73;4.50;;;;;;;3.52;56.66;96702.78;5066704;28;20829;-69
2021/01/19 09:36:17;;;;;;;9.70;4.80;;;;;;;3.79;56.00;96698.94;5067859;28;20520;-70
2021/01/19 09:38:45;;;;;;;6.70;4.47;;;;;;;3.73;55.97;96693.41;5076000;28;20927;-69
2021/01/19 09:41:24;;;;;;;5.67;4.30;;;;;;;3.63;56.62;96688.97;5078725;28;20431;-69
2021/01/19 09:43:53;;;;;;;7.30;4.53;;;;;;;3.72;56.83;96674.47;5064709;28;20463;-69
2021/01/19 09:46:22;;;;;;;8.40;4.43;;;;;;;3.74;56.35;96669.97;5067752;28;20695;-69
2021/01/19 09:48:49;;;;;;;6.27;4.17;;;;;;;3.70;56.36;96668.56;5064244;28;20527;-68
2021/01/19 09:51:15;;;;;;;7.27;4.03;;;;;;;3.73;56.93;96660.56;5073828;28;20451;-68
2021/01/19 09:53:41;;;;;;;5.13;4.30;;;;;;;3.74;56.66;96646.66;5073323;28;20444;-68
2021/01/19 09:56:17;;;;;;;7.10;4.07;;;;;;;3.73;55.90;96646.75;5063256;28;20209;-70
2021/01/19 09:58:43;;;;;;;14.27;5.00;;;;;;;3.62;57.45;96642.44;5071196;28;20420;-70
2021/01/19 10:01:08;;;;;;;6.87;4.33;;;;;;;3.67;57.01;96646.31;5073919;28;20432;-68
2021/01/19 10:03:35;;;;;;;6.23;4.33;;;;;;;3.65;57.21;96631.84;5074307;28;20991;-69
2021/01/19 10:06:08;;;;;;;6.73;3.83;;;;;;;3.79;57.37;96623.75;5055906;28;20424;-71
2021/01/19 10:08:37;;;;;;;10.67;4.50;;;;;;;3.63;57.48;96620.78;5073070;28;20975;-69
2021/01/19 10:11:03;;;;;;;9.17;5.20;;;;;;;3.65;57.17;96618.88;5074626;28;20423;-69
2021/01/19 10:13:31;;;;;;;6.63;4.70;;;;;;;3.42;57.73;96613.75;5063579;28;20443;-68
2021/01/19 10:16:04;;;;;;;8.70;4.50;;;;;;;3.85;57.02;96609.47;5071944;28;20911;-68
2021/01/19 10:18:31;;;;;;;13.73;5.00;;;;;;;3.92;56.94;96604.63;5060394;28;20429;-70
2021/01/19 10:20:57;;;;;;;14.10;4.97;;;;;;;3.60;57.73;96601.09;5071681;28;20534;-70
2021/01/19 10:23:31;;;;;;;8.80;4.80;;;;;;;3.61;58.21;96594.16;5054874;28;20454;-69
2021/01/19 10:26:26;;;;;;;12.03;5.57;;;;;;;3.74;57.52;96581.00;5060132;28;20516;-70
2021/01/19 10:28:55;;;;;;;8.90;4.87;;;;;;;3.73;57.72;96582.78;5058719;28;20436;-71
2021/01/19 10:31:24;;;;;;;6.63;5.03;;;;;;;3.74;57.97;96578.41;5073804;28;20510;-71
2021/01/19 10:34:02;;;;;;;10.17;4.87;;;;;;;3.79;58.09;96571.91;5065579;28;20441;-71
2021/01/19 10:36:29;;;;;;;6.50;4.30;;;;;;;3.46;58.38;96575.50;5056190;28;20437;-68
2021/01/19 10:39:03;;;;;;;6.20;4.43;;;;;;;3.51;59.16;96568.16;5070767;28;21064;-69
2021/01/19 10:41:29;;;;;;;11.23;4.80;;;;;;;3.69;58.55;96576.22;5067276;28;20425;-69
2021/01/19 10:43:56;;;;;;;9.03;4.20;;;;;;;4.00;58.08;96561.56;5061037;28;20993;-70
2021/01/19 10:46:24;;;;;;;8.03;4.37;;;;;;;4.04;57.35;96553.53;5074301;28;20429;-69
2021/01/19 10:48:59;;;;;;;12.40;4.80;;;;;;;3.83;58.42;96544.81;5074537;28;20428;-68
2021/01/19 10:51:27;;;;;;;6.10;4.10;;;;;;;3.97;57.69;96546.25;5075200;28;20481;-70
2021/01/19 10:54:13;;;;;;;8.67;4.60;;;;;;;3.62;58.50;96531.03;5076610;28;20449;-71
2021/01/19 10:56:41;;;;;;;8.43;5.10;;;;;;;3.78;58.18;96536.56;5077038;28;20420;-69
2021/01/19 10:59:08;;;;;;;9.30;5.17;;;;;;;3.88;58.35;96530.66;5067030;28;20440;-71
2021/01/19 11:01:34;;;;;;;9.93;4.27;;;;;;;4.19;57.53;96538.44;5074436;28;20450;-70
2021/01/19 11:04:00;;;;;;;8.60;5.23;;;;;;;4.14;57.38;96524.13;5073034;28;20464;-72
2021/01/19 11:06:52;;;;;;;9.00;4.70;;;;;;;4.04;57.67;96515.44;5065161;28;20517;-71
2021/01/19 11:09:18;;;;;;;12.43;5.40;;;;;;;4.19;57.39;96507.31;5067582;28;20429;-70
2021/01/19 11:11:44;;;;;;;11.20;6.20;;;;;;;4.38;56.59;96502.25;5069105;28;20450;-70
2021/01/19 11:14:10;;;;;;;9.73;5.40;;;;;;;4.48;56.89;96501.44;5083208;28;20439;-70
2021/01/19 11:16:41;;;;;;;7.63;5.00;;;;;;;4.19;57.53;96486.56;5071824;28;20183;-75
2021/01/19 11:19:09;;;;;;;8.33;4.97;;;;;;;4.57;56.61;96472.09;5072506;28;20425;-70
2021/01/19 11:21:36;;;;;;;8.73;5.60;;;;;;;4.21;56.25;96459.56;5069647;28;20494;-70
2021/01/19 11:24:03;;;;;;;11.10;4.33;;;;;;;4.04;57.54;96463.56;5074198;28;20464;-71
2021/01/19 11:26:30;;;;;;;9.63;4.87;;;;;;;4.11;57.13;96462.13;5066360;28;20429;-71
2021/01/19 11:28:56;;;;;;;9.60;4.77;;;;;;;3.99;56.74;96460.56;5072453;28;20496;-71
2021/01/19 11:31:23;;;;;;;10.47;4.83;;;;;;;4.19;56.50;96463.22;5073971;28;20428;-72
2021/01/19 11:33:49;;;;;;;7.80;4.37;;;;;;;4.55;55.79;96466.22;5073791;28;20449;-73
2021/01/19 11:36:25;;;;;;;7.17;4.47;;;;;;;4.29;56.76;96462.31;5069387;28;20854;-71
2021/01/19 11:38:52;;;;;;;7.20;4.00;;;;;;;4.37;55.63;96463.44;5063584;28;20498;-72
2021/01/19 11:41:19;;;;;;;8.63;4.50;;;;;;;4.44;56.33;96459.38;5063893;28;20418;-71
2021/01/19 11:43:45;;;;;;;8.27;4.83;;;;;;;4.58;55.95;96455.56;5055112;28;20466;-72
2021/01/19 11:46:12;;;;;;;7.27;4.37;;;;;;;4.02;56.48;96464.66;5065416;28;20428;-71
2021/01/19 11:48:38;;;;;;;10.17;4.17;;;;;;;4.35;56.46;96452.38;5073342;28;20417;-71
2021/01/19 11:51:04;;;;;;;7.70;4.00;;;;;;;4.19;56.55;96455.44;5072631;28;20424;-70
2021/01/19 11:53:29;;;;;;;4.80;3.40;;;;;;;4.34;56.28;96461.13;5072247;28;20524;-72